KMIE/MIE METAR and TAF weather

Enter ICAO airport designator
Station Type Date Time Source
KMIE METAR 2021/03/03 01:53 UTC NOAA

KMIE 030153Z 21005KT 10SM CLR 03/M07 A3008 RMK AO2 SLP192 T00281072


Station Type Date Time Source
KMIE Decoded METAR 2021/03/03 01:53 UTC NOAA

MUNCIE DELAWARE JOHNSON, IN, United States (KMIE) 40-14N 85-24W 285M
Mar 02, 2021 - 08:53 PM EST / 2021.03.03 0153 UTC
Wind: from the SSW (210 degrees) at 6 MPH (5 KT):0
Visibility: 10 mile(s):0
Sky conditions: clear
Temperature: 37.0 F (2.8 C)
Dew Point: 19.0 F (-7.2 C)
Relative Humidity: 47%
Pressure (altimeter): 30.08 in. Hg (1018 hPa)
ob: KMIE 030153Z 21005KT 10SM CLR 03/M07 A3008 RMK AO2 SLP192 T00281072
cycle: 2

Station Type Date Time Source
KMIE TAF UTC NOAA

Error!

Example: see airport list